Time;durP1;ratioP1;P1;durP2;ratioP2;P2;SDS_P1;SDS_P2;PMS_P1;PMS_P2;Temp;Humidity;BMP_temperature;BMP_pressure;BME280_temperature;BME280_humidity;BME280_pressure;Samples;Min_cycle;Max_cycle;Signal;HPM_P1;HPM_P2
2022/05/17 00:00:59;;;;;;;1.95;1.70;;;;;;;;;;4178099;34;20126;-65
2022/05/17 00:33:56;;;;;;;3.35;1.98;;;;;;;;;;4250593;28;19990;-60
2022/05/17 00:36:23;;;;;;;1.80;1.60;;;;;;;;;;4176990;34;21253;-61
2022/05/17 00:38:49;;;;;;;2.00;1.80;;;;;;;;;;4177540;34;20093;-62
2022/05/17 00:41:15;;;;;;;2.67;2.00;;;;;;;;;;4164756;34;20110;-61
2022/05/17 00:46:56;;;;;;;1.62;1.50;;;;;;;;;;4177713;34;20522;-64
2022/05/17 00:49:34;;;;;;;4.68;2.05;;;;;;;;;;4163631;34;20146;-65
2022/05/17 00:52:03;;;;;;;2.55;1.90;;;;;;;;;;4177623;34;20106;-61
2022/05/17 00:54:29;;;;;;;2.58;2.08;;;;;;;;;;4164902;34;20124;-61
2022/05/17 00:57:02;;;;;;;2.47;1.73;;;;;;;;;;4164922;34;20134;-63
2022/05/17 00:59:29;;;;;;;2.70;1.90;;;;;;;;;;4177614;34;20455;-64
2022/05/17 01:01:55;;;;;;;1.98;1.77;;;;;;;;;;4177607;34;20554;-63
2022/05/17 01:04:23;;;;;;;2.05;1.85;;;;;;;;;;4177674;34;20112;-63
2022/05/17 01:06:59;;;;;;;4.62;1.98;;;;;;;;;;4177565;34;20110;-67
2022/05/17 01:09:24;;;;;;;;;;;;;;;;;;4165103;34;20095;-66
2022/05/17 01:11:51;;;;;;;3.72;2.00;;;;;;;;;;4177450;34;19982;-64
2022/05/17 01:17:02;;;;;;;2.00;1.77;;;;;;;;;;4166822;34;20142;-64
2022/05/17 01:19:28;;;;;;;2.00;1.70;;;;;;;;;;4177445;34;20317;-64
2022/05/17 01:21:54;;;;;;;3.90;1.95;;;;;;;;;;4177424;34;20117;-64
2022/05/17 01:24:20;;;;;;;1.92;1.77;;;;;;;;;;4177531;34;20447;-64
2022/05/17 01:26:51;;;;;;;3.30;1.77;;;;;;;;;;4177393;34;20106;-64
2022/05/17 01:29:17;;;;;;;2.47;1.90;;;;;;;;;;4164591;34;20533;-64
2022/05/17 01:31:43;;;;;;;3.83;2.00;;;;;;;;;;4177319;34;20114;-65
2022/05/17 01:34:13;;;;;;;2.37;1.73;;;;;;;;;;4164614;34;20129;-65
2022/05/17 01:36:40;;;;;;;3.92;2.00;;;;;;;;;;4176254;34;20121;-66
2022/05/17 01:39:07;;;;;;;2.60;2.00;;;;;;;;;;4177089;34;20506;-66
2022/05/17 01:41:33;;;;;;;3.35;2.05;;;;;;;;;;4164500;34;20110;-65
2022/05/17 01:43:59;;;;;;;2.00;1.90;;;;;;;;;;4177220;34;20141;-65
2022/05/17 01:46:25;;;;;;;2.15;1.95;;;;;;;;;;4177244;34;20102;-65
2022/05/17 01:48:52;;;;;;;1.98;1.75;;;;;;;;;;4177334;34;20102;-65
2022/05/17 01:51:19;;;;;;;2.05;1.92;;;;;;;;;;4164708;34;20087;-65
2022/05/17 01:53:45;;;;;;;2.30;1.58;;;;;;;;;;4177151;34;20125;-65
2022/05/17 01:56:12;;;;;;;2.37;2.03;;;;;;;;;;4177316;34;20149;-64
2022/05/17 01:58:38;;;;;;;4.00;2.10;;;;;;;;;;4177111;34;20191;-65
2022/05/17 02:01:07;;;;;;;2.65;1.80;;;;;;;;;;4164582;34;20114;-65
2022/05/17 02:03:34;;;;;;;1.90;1.80;;;;;;;;;;4164289;34;20217;-65
2022/05/17 02:06:00;;;;;;;3.08;2.00;;;;;;;;;;4176985;34;20091;-65
2022/05/17 02:08:26;;;;;;;2.00;1.80;;;;;;;;;;4177141;34;20106;-64
2022/05/17 02:10:52;;;;;;;4.12;1.85;;;;;;;;;;4176911;34;20106;-64
2022/05/17 02:13:18;;;;;;;3.25;2.12;;;;;;;;;;4177282;34;20113;-67
2022/05/17 02:15:44;;;;;;;1.80;1.70;;;;;;;;;;4177144;34;20126;-67
2022/05/17 02:18:11;;;;;;;2.17;1.70;;;;;;;;;;4177213;34;20154;-67
2022/05/17 02:20:37;;;;;;;2.17;1.70;;;;;;;;;;4176831;34;20533;-67
2022/05/17 02:23:03;;;;;;;1.85;1.65;;;;;;;;;;4176919;34;20206;-67
2022/05/17 02:25:29;;;;;;;2.20;1.90;;;;;;;;;;4176787;34;20153;-67
2022/05/17 02:27:54;;;;;;;1.73;1.62;;;;;;;;;;4176987;34;20549;-66
2022/05/17 02:30:21;;;;;;;3.00;1.95;;;;;;;;;;4176812;34;20229;-64
2022/05/17 02:32:47;;;;;;;2.92;1.90;;;;;;;;;;4176949;34;20125;-64
2022/05/17 02:35:13;;;;;;;3.35;2.00;;;;;;;;;;4164355;34;20102;-65
2022/05/17 02:37:39;;;;;;;2.78;1.83;;;;;;;;;;4176793;34;20118;-64
2022/05/17 02:40:06;;;;;;;2.17;1.60;;;;;;;;;;4176834;34;20157;-65
2022/05/17 02:42:32;;;;;;;4.32;1.75;;;;;;;;;;4164302;34;20122;-65
2022/05/17 02:44:58;;;;;;;2.53;1.80;;;;;;;;;;4176483;34;20118;-65
2022/05/17 02:47:24;;;;;;;4.10;1.70;;;;;;;;;;4177011;34;20114;-65
2022/05/17 02:49:50;;;;;;;2.87;2.05;;;;;;;;;;4178491;34;20617;-66
2022/05/17 02:52:16;;;;;;;3.53;2.25;;;;;;;;;;4177345;34;20130;-70
2022/05/17 02:54:42;;;;;;;3.40;2.17;;;;;;;;;;4174569;34;20361;-65
2022/05/17 02:57:09;;;;;;;3.45;2.10;;;;;;;;;;4169318;34;20101;-64
2022/05/17 02:59:35;;;;;;;5.32;2.47;;;;;;;;;;4151552;34;20122;-63
2022/05/17 03:02:02;;;;;;;3.30;2.17;;;;;;;;;;4158824;34;20122;-63
2022/05/17 03:04:28;;;;;;;5.65;2.50;;;;;;;;;;4163861;34;20125;-65
2022/05/17 03:06:55;;;;;;;4.15;2.58;;;;;;;;;;4157279;34;20509;-66
2022/05/17 03:09:21;;;;;;;5.00;2.62;;;;;;;;;;4170635;34;20138;-66
2022/05/17 03:11:47;;;;;;;4.40;2.72;;;;;;;;;;4168578;34;20313;-66
2022/05/17 03:14:16;;;;;;;3.75;2.00;;;;;;;;;;4178295;34;20129;-66
2022/05/17 03:16:43;;;;;;;2.92;2.20;;;;;;;;;;4178151;34;20241;-67
2022/05/17 03:19:09;;;;;;;4.68;2.45;;;;;;;;;;4178570;34;20129;-67
2022/05/17 03:21:35;;;;;;;4.28;2.30;;;;;;;;;;4164614;34;20114;-67
2022/05/17 03:24:01;;;;;;;2.65;2.10;;;;;;;;;;4165344;34;20129;-65
2022/05/17 03:26:28;;;;;;;5.30;2.00;;;;;;;;;;4178093;34;20111;-66
2022/05/17 03:28:56;;;;;;;3.10;2.20;;;;;;;;;;4178288;34;20198;-65
2022/05/17 03:31:22;;;;;;;3.97;2.25;;;;;;;;;;4178353;34;20099;-65
2022/05/17 03:33:48;;;;;;;5.05;2.30;;;;;;;;;;4178154;34;20133;-66
2022/05/17 03:36:14;;;;;;;7.22;3.30;;;;;;;;;;4166043;34;20443;-66
2022/05/17 03:38:40;;;;;;;4.95;2.47;;;;;;;;;;4165180;34;20436;-66
2022/05/17 03:41:06;;;;;;;2.92;2.03;;;;;;;;;;4164484;34;20206;-66
2022/05/17 03:43:33;;;;;;;3.78;2.08;;;;;;;;;;4175556;34;20217;-66
2022/05/17 03:45:59;;;;;;;4.05;2.40;;;;;;;;;;4164348;34;20518;-65
2022/05/17 03:48:26;;;;;;;3.50;2.22;;;;;;;;;;4177736;34;20511;-65
2022/05/17 03:50:52;;;;;;;1.95;1.75;;;;;;;;;;4164376;34;20440;-65
2022/05/17 03:53:19;;;;;;;4.40;2.15;;;;;;;;;;4176910;34;20189;-65
2022/05/17 03:55:45;;;;;;;3.58;2.20;;;;;;;;;;4164662;34;20210;-64
2022/05/17 03:58:11;;;;;;;2.87;2.25;;;;;;;;;;4177355;34;20126;-66
2022/05/17 04:00:36;;;;;;;2.42;2.10;;;;;;;;;;4177195;34;20106;-68
2022/05/17 04:03:03;;;;;;;2.40;2.10;;;;;;;;;;4177569;34;20142;-65
2022/05/17 04:05:29;;;;;;;4.87;2.30;;;;;;;;;;4177775;34;20113;-66
2022/05/17 04:07:56;;;;;;;2.35;2.15;;;;;;;;;;4177441;34;20190;-66
2022/05/17 04:10:22;;;;;;;4.62;2.30;;;;;;;;;;4176935;34;20098;-67
2022/05/17 04:12:49;;;;;;;3.20;2.33;;;;;;;;;;4165311;34;20111;-70
2022/05/17 04:15:21;;;;;;;2.47;2.10;;;;;;;;;;4154159;34;20105;-67
2022/05/17 04:17:48;;;;;;;2.67;2.20;;;;;;;;;;4165098;34;20134;-67
2022/05/17 04:20:15;;;;;;;2.30;2.05;;;;;;;;;;4177914;34;20214;-67
2022/05/17 04:22:45;;;;;;;2.37;2.00;;;;;;;;;;4165313;34;20122;-65
2022/05/17 04:25:11;;;;;;;2.90;1.98;;;;;;;;;;4178144;34;20199;-66
2022/05/17 04:27:38;;;;;;;3.60;2.12;;;;;;;;;;4177737;34;20125;-66
2022/05/17 04:30:04;;;;;;;2.10;1.90;;;;;;;;;;4177860;34;20105;-70
2022/05/17 04:32:31;;;;;;;3.80;1.90;;;;;;;;;;4177662;34;20117;-67
2022/05/17 04:34:57;;;;;;;2.33;1.83;;;;;;;;;;4177625;34;20113;-66
2022/05/17 04:37:23;;;;;;;3.25;2.25;;;;;;;;;;4165180;34;20134;-66
2022/05/17 04:39:49;;;;;;;3.20;2.15;;;;;;;;;;4165971;34;20134;-66
2022/05/17 04:42:15;;;;;;;2.15;1.83;;;;;;;;;;4140165;34;20194;-67
2022/05/17 04:44:41;;;;;;;3.60;2.05;;;;;;;;;;4163829;34;20630;-67
2022/05/17 04:47:08;;;;;;;2.17;1.98;;;;;;;;;;4151354;34;20099;-66
2022/05/17 04:49:34;;;;;;;2.45;1.92;;;;;;;;;;4151214;34;20199;-66
2022/05/17 04:52:00;;;;;;;3.00;1.77;;;;;;;;;;4164103;34;20213;-66
2022/05/17 04:54:26;;;;;;;2.92;2.03;;;;;;;;;;4163910;34;20193;-66
2022/05/17 04:56:52;;;;;;;3.00;1.92;;;;;;;;;;4163800;34;20587;-66
2022/05/17 04:59:19;;;;;;;2.20;1.80;;;;;;;;;;4163913;34;20169;-66
2022/05/17 05:01:46;;;;;;;2.60;2.28;;;;;;;;;;4163798;34;20217;-66
2022/05/17 05:04:12;;;;;;;3.62;1.90;;;;;;;;;;4163944;34;20129;-66
2022/05/17 05:06:38;;;;;;;1.95;1.73;;;;;;;;;;4163867;34;20230;-66
2022/05/17 05:09:04;;;;;;;2.17;1.75;;;;;;;;;;4163744;34;20142;-66
2022/05/17 05:11:30;;;;;;;1.58;1.48;;;;;;;;;;4163645;34;20541;-67
2022/05/17 05:13:56;;;;;;;2.67;1.75;;;;;;;;;;4151230;34;20557;-67
2022/05/17 05:16:22;;;;;;;2.35;1.60;;;;;;;;;;4163756;34;20119;-66
2022/05/17 05:18:48;;;;;;;1.48;1.37;;;;;;;;;;4163809;34;20463;-67
2022/05/17 05:21:15;;;;;;;3.83;1.70;;;;;;;;;;4163782;34;20119;-66
2022/05/17 05:23:42;;;;;;;2.55;1.60;;;;;;;;;;4163774;34;20118;-66
2022/05/17 05:26:10;;;;;;;4.43;1.52;;;;;;;;;;4163882;34;20103;-65
2022/05/17 05:28:37;;;;;;;2.72;1.58;;;;;;;;;;4163621;34;20130;-65
2022/05/17 05:31:03;;;;;;;2.35;1.50;;;;;;;;;;4163604;34;20129;-65
2022/05/17 05:33:31;;;;;;;2.40;1.80;;;;;;;;;;4151199;34;20118;-68
2022/05/17 05:35:57;;;;;;;3.28;1.30;;;;;;;;;;4163600;34;20123;-65
2022/05/17 05:38:24;;;;;;;2.30;1.48;;;;;;;;;;4176233;34;20515;-65
2022/05/17 05:40:50;;;;;;;1.52;1.42;;;;;;;;;;4177190;34;20533;-66
2022/05/17 05:43:17;;;;;;;1.60;1.50;;;;;;;;;;4177057;34;20145;-65
2022/05/17 05:45:43;;;;;;;4.37;1.60;;;;;;;;;;4177326;34;20186;-65
2022/05/17 05:48:09;;;;;;;3.08;1.62;;;;;;;;;;4164581;34;20126;-65
2022/05/17 05:50:36;;;;;;;3.37;1.60;;;;;;;;;;4177160;34;20470;-65
2022/05/17 05:53:07;;;;;;;2.85;1.80;;;;;;;;;;4177006;34;20141;-63
2022/05/17 05:55:35;;;;;;;2.78;1.48;;;;;;;;;;4177160;34;20107;-64
2022/05/17 05:58:02;;;;;;;1.65;1.50;;;;;;;;;;4177275;34;20118;-65
2022/05/17 06:00:28;;;;;;;2.33;1.67;;;;;;;;;;4177096;34;20135;-65
2022/05/17 06:02:55;;;;;;;5.53;1.70;;;;;;;;;;4176910;34;20114;-66
2022/05/17 06:05:22;;;;;;;1.42;1.33;;;;;;;;;;4176983;34;20121;-63
2022/05/17 06:07:48;;;;;;;2.05;1.85;;;;;;;;;;4176840;34;20126;-64
2022/05/17 06:10:15;;;;;;;2.03;1.83;;;;;;;;;;4177120;34;20098;-64
2022/05/17 06:12:41;;;;;;;2.25;1.58;;;;;;;;;;4177209;34;20118;-64
2022/05/17 06:15:07;;;;;;;1.70;1.40;;;;;;;;;;4176901;34;20106;-65
2022/05/17 06:17:33;;;;;;;3.58;1.50;;;;;;;;;;4176757;34;20109;-65
2022/05/17 06:20:00;;;;;;;2.08;1.70;;;;;;;;;;4176920;34;20190;-68
2022/05/17 06:22:27;;;;;;;2.55;1.67;;;;;;;;;;4176340;34;20130;-65
2022/05/17 06:24:53;;;;;;;1.60;1.40;;;;;;;;;;4163986;34;20172;-67
2022/05/17 06:27:19;;;;;;;1.83;1.40;;;;;;;;;;4176718;34;20483;-65
2022/05/17 06:29:45;;;;;;;3.12;1.58;;;;;;;;;;4177029;34;20117;-64
2022/05/17 06:32:13;;;;;;;2.97;1.60;;;;;;;;;;4177014;34;20154;-65
2022/05/17 06:34:39;;;;;;;3.80;1.50;;;;;;;;;;4176958;34;20114;-64
2022/05/17 06:37:06;;;;;;;3.80;1.70;;;;;;;;;;4176333;34;20230;-65
2022/05/17 06:39:33;;;;;;;2.75;1.40;;;;;;;;;;4163924;34;20213;-66
2022/05/17 06:42:00;;;;;;;3.12;1.70;;;;;;;;;;4176414;34;20789;-65
2022/05/17 06:44:26;;;;;;;2.35;1.55;;;;;;;;;;4164120;34;20122;-67
2022/05/17 06:46:54;;;;;;;1.35;1.25;;;;;;;;;;4176688;34;20126;-66
2022/05/17 06:49:21;;;;;;;9.13;1.80;;;;;;;;;;4163825;34;20611;-67
2022/05/17 06:51:48;;;;;;;2.42;1.60;;;;;;;;;;4163846;34;20110;-65
2022/05/17 06:54:14;;;;;;;3.92;1.98;;;;;;;;;;4176552;34;20139;-64
2022/05/17 06:56:40;;;;;;;4.10;1.55;;;;;;;;;;4152411;34;20134;-65
2022/05/17 06:59:07;;;;;;;1.10;1.10;;;;;;;;;;4163800;34;20146;-65
2022/05/17 07:01:33;;;;;;;2.92;1.70;;;;;;;;;;4176381;34;20130;-65
2022/05/17 07:03:59;;;;;;;2.10;1.70;;;;;;;;;;4176287;34;20572;-65
2022/05/17 07:06:26;;;;;;;3.00;1.55;;;;;;;;;;4176355;34;20118;-65
2022/05/17 07:08:52;;;;;;;3.72;1.70;;;;;;;;;;4163262;34;20534;-66
2022/05/17 07:14:02;;;;;;;5.10;1.77;;;;;;;;;;4176288;34;20120;-66
2022/05/17 07:16:28;;;;;;;2.22;1.50;;;;;;;;;;4176250;34;20123;-65
2022/05/17 07:18:55;;;;;;;3.75;1.58;;;;;;;;;;4176273;34;20204;-64
2022/05/17 07:21:21;;;;;;;2.22;1.40;;;;;;;;;;4176562;34;20107;-66
2022/05/17 07:23:47;;;;;;;1.50;1.40;;;;;;;;;;4176351;34;20130;-66
2022/05/17 07:26:13;;;;;;;2.40;1.30;;;;;;;;;;4176266;34;20141;-65
2022/05/17 07:28:47;;;;;;;3.90;1.67;;;;;;;;;;4176397;34;20130;-66
2022/05/17 07:31:14;;;;;;;1.30;1.17;;;;;;;;;;4176483;34;20094;-64
2022/05/17 07:33:40;;;;;;;8.13;1.98;;;;;;;;;;4176484;34;20544;-65
2022/05/17 07:36:08;;;;;;;5.90;1.00;;;;;;;;;;4178342;34;20557;-66
2022/05/17 07:38:35;;;;;;;6.15;2.67;;;;;;;;;;4178124;34;20126;-65
2022/05/17 07:41:02;;;;;;;3.58;1.40;;;;;;;;;;4165662;34;20156;-65
2022/05/17 07:43:28;;;;;;;1.23;1.12;;;;;;;;;;4178078;34;20222;-69
2022/05/17 07:45:54;;;;;;;1.67;1.58;;;;;;;;;;4178395;34;20130;-66
2022/05/17 07:48:21;;;;;;;2.78;1.25;;;;;;;;;;4178239;34;20136;-66
2022/05/17 07:50:49;;;;;;;1.23;1.20;;;;;;;;;;4178454;34;20105;-65
2022/05/17 07:53:17;;;;;;;2.05;1.55;;;;;;;;;;4178373;34;20206;-65
2022/05/17 07:55:44;;;;;;;1.50;1.40;;;;;;;;;;4178115;34;20125;-65
2022/05/17 07:58:10;;;;;;;4.53;1.50;;;;;;;;;;4177862;34;20110;-65
2022/05/17 08:00:37;;;;;;;1.00;1.00;;;;;;;;;;4165633;34;20122;-64
2022/05/17 08:03:04;;;;;;;1.92;1.30;;;;;;;;;;4178054;34;20117;-67
2022/05/17 08:05:31;;;;;;;4.18;1.35;;;;;;;;;;4178263;34;20126;-67
2022/05/17 08:07:57;;;;;;;1.85;1.40;;;;;;;;;;4165426;34;20128;-65
2022/05/17 08:10:24;;;;;;;3.53;1.60;;;;;;;;;;4178009;34;20514;-66
2022/05/17 08:12:51;;;;;;;1.00;1.00;;;;;;;;;;4177820;34;20211;-66
2022/05/17 08:15:19;;;;;;;1.95;0.98;;;;;;;;;;4178015;34;20129;-65
2022/05/17 08:17:45;;;;;;;2.67;1.52;;;;;;;;;;4177860;34;20133;-66
2022/05/17 08:20:11;;;;;;;1.25;1.08;;;;;;;;;;4165320;34;20518;-68
2022/05/17 08:22:41;;;;;;;2.72;1.67;;;;;;;;;;4177811;34;20105;-73
2022/05/17 08:27:54;;;;;;;5.35;1.62;;;;;;;;;;4177793;34;20120;-65
2022/05/17 08:30:22;;;;;;;1.37;1.27;;;;;;;;;;4177935;34;20096;-65
2022/05/17 08:35:54;;;;;;;1.15;1.15;;;;;;;;;;4177843;34;20101;-66
2022/05/17 08:38:29;;;;;;;2.72;1.80;;;;;;;;;;4177697;34;20106;-65
2022/05/17 08:41:07;;;;;;;7.10;1.67;;;;;;;;;;4178114;34;20125;-65
2022/05/17 08:43:49;;;;;;;1.55;1.37;;;;;;;;;;4164708;34;20185;-67
2022/05/17 08:46:26;;;;;;;2.65;1.62;;;;;;;;;;4177320;34;20099;-66
2022/05/17 08:49:29;;;;;;;3.33;1.60;;;;;;;;;;4177778;34;20232;-67
2022/05/17 08:52:17;;;;;;;2.47;1.60;;;;;;;;;;4164926;34;20575;-67
2022/05/17 08:54:48;;;;;;;1.75;1.48;;;;;;;;;;4165025;34;20214;-67
2022/05/17 08:57:30;;;;;;;2.67;1.30;;;;;;;;;;4177516;34;20110;-66
2022/05/17 09:00:08;;;;;;;2.10;1.55;;;;;;;;;;4177898;34;20117;-67
2022/05/17 09:02:44;;;;;;;4.70;1.62;;;;;;;;;;4164818;34;20196;-67
2022/05/17 09:05:33;;;;;;;3.85;1.48;;;;;;;;;;4177774;34;20165;-64
2022/05/17 09:08:08;;;;;;;1.27;1.17;;;;;;;;;;4177496;34;20207;-65
2022/05/17 09:10:37;;;;;;;1.87;1.33;;;;;;;;;;4177792;34;20122;-65
2022/05/17 09:13:21;;;;;;;2.55;1.70;;;;;;;;;;4164682;34;20213;-65
2022/05/17 09:15:47;;;;;;;2.53;1.70;;;;;;;;;;4164786;34;20451;-65
2022/05/17 09:18:16;;;;;;;2.75;1.60;;;;;;;;;;4177668;34;20456;-66
2022/05/17 09:20:42;;;;;;;3.80;2.08;;;;;;;;;;4164914;34;20113;-66
2022/05/17 09:23:08;;;;;;;8.02;1.80;;;;;;;;;;4177397;34;20520;-64
2022/05/17 09:25:46;;;;;;;2.17;1.70;;;;;;;;;;4177276;34;20526;-67
2022/05/17 09:28:17;;;;;;;3.95;1.60;;;;;;;;;;4153457;34;20235;-68
2022/05/17 09:30:44;;;;;;;2.35;1.33;;;;;;;;;;4177394;34;20558;-66
2022/05/17 09:33:14;;;;;;;2.78;1.60;;;;;;;;;;4177112;34;20106;-69
2022/05/17 09:35:44;;;;;;;2.12;1.40;;;;;;;;;;4164994;34;20465;-69
2022/05/17 09:38:10;;;;;;;1.62;1.52;;;;;;;;;;4177298;34;20102;-65
2022/05/17 09:40:38;;;;;;;7.30;1.87;;;;;;;;;;4175851;34;20132;-64
2022/05/17 09:43:11;;;;;;;0.90;0.90;;;;;;;;;;4164523;34;20617;-66
2022/05/17 09:45:46;;;;;;;1.05;1.05;;;;;;;;;;4177433;34;20091;-64
2022/05/17 09:48:13;;;;;;;1.50;1.40;;;;;;;;;;4177535;34;20117;-64
2022/05/17 09:53:46;;;;;;;1.70;1.40;;;;;;;;;;4177252;34;20186;-65
2022/05/17 09:56:13;;;;;;;4.32;1.75;;;;;;;;;;4153729;34;20822;-66
2022/05/17 09:58:41;;;;;;;2.58;1.27;;;;;;;;;;4163763;34;20102;-67
2022/05/17 10:01:21;;;;;;;2.45;2.00;;;;;;;;;;4177893;34;20116;-68
2022/05/17 10:04:06;;;;;;;1.50;1.40;;;;;;;;;;4177311;34;20122;-69
2022/05/17 10:06:35;;;;;;;4.10;1.60;;;;;;;;;;4177816;34;20138;-67
2022/05/17 10:09:06;;;;;;;4.00;2.33;;;;;;;;;;4177667;34;20118;-66
2022/05/17 10:11:53;;;;;;;2.60;1.73;;;;;;;;;;4177526;34;20090;-67
2022/05/17 10:14:33;;;;;;;2.62;1.77;;;;;;;;;;4164067;34;20729;-68
2022/05/17 10:17:15;;;;;;;10.65;2.30;;;;;;;;;;4164526;34;20138;-68
2022/05/17 10:19:55;;;;;;;11.52;2.10;;;;;;;;;;4164226;34;20138;-67
2022/05/17 10:22:45;;;;;;;3.17;1.60;;;;;;;;;;4176998;34;20101;-67
2022/05/17 10:25:41;;;;;;;1.83;1.52;;;;;;;;;;4164178;34;20130;-67
2022/05/17 10:28:15;;;;;;;1.37;1.27;;;;;;;;;;4177243;34;20103;-67
2022/05/17 10:30:53;;;;;;;0.80;0.80;;;;;;;;;;4164438;34;20213;-68
2022/05/17 10:33:26;;;;;;;0.80;0.80;;;;;;;;;;4177036;34;20237;-68
2022/05/17 10:36:25;;;;;;;0.73;0.73;;;;;;;;;;4164407;34;20090;-67
2022/05/17 10:39:02;;;;;;;1.20;1.20;;;;;;;;;;4162057;34;20562;-67
2022/05/17 10:41:28;;;;;;;0.90;0.90;;;;;;;;;;4176721;34;20113;-67
2022/05/17 10:43:54;;;;;;;0.80;0.80;;;;;;;;;;4176467;34;20133;-68
2022/05/17 10:46:26;;;;;;;1.20;1.20;;;;;;;;;;4176783;34;20626;-68
2022/05/17 10:49:10;;;;;;;1.20;1.10;;;;;;;;;;4176524;34;20546;-67
2022/05/17 10:51:58;;;;;;;0.98;0.98;;;;;;;;;;4176633;34;21034;-68
2022/05/17 10:54:59;;;;;;;1.00;1.00;;;;;;;;;;4163940;34;20110;-67
2022/05/17 10:57:41;;;;;;;2.42;1.12;;;;;;;;;;4176089;34;20215;-69
2022/05/17 11:00:21;;;;;;;1.12;1.05;;;;;;;;;;4176024;34;20098;-68
2022/05/17 11:03:07;;;;;;;1.90;1.40;;;;;;;;;;4176465;34;20110;-69
2022/05/17 11:05:40;;;;;;;1.15;1.10;;;;;;;;;;4176469;34;20111;-70
2022/05/17 11:08:08;;;;;;;3.28;1.50;;;;;;;;;;4163243;34;20531;-67
2022/05/17 11:10:41;;;;;;;1.08;1.08;;;;;;;;;;4171251;34;20125;-66
2022/05/17 11:13:10;;;;;;;1.00;0.98;;;;;;;;;;4155692;34;20130;-68
2022/05/17 11:15:39;;;;;;;2.60;1.12;;;;;;;;;;4165033;34;20124;-67
2022/05/17 11:18:28;;;;;;;1.10;1.00;;;;;;;;;;4165539;34;20099;-67
2022/05/17 11:20:58;;;;;;;2.33;1.60;;;;;;;;;;4178483;34;20128;-67
2022/05/17 11:23:36;;;;;;;4.12;1.50;;;;;;;;;;4178406;34;20507;-67
2022/05/17 11:26:14;;;;;;;1.42;1.08;;;;;;;;;;4168323;34;20107;-67
2022/05/17 11:28:44;;;;;;;1.35;1.25;;;;;;;;;;4178437;34;20153;-67
2022/05/17 11:31:17;;;;;;;1.00;1.00;;;;;;;;;;4154529;34;20161;-67
2022/05/17 11:33:43;;;;;;;3.17;1.30;;;;;;;;;;4165660;34;20182;-68
2022/05/17 11:36:31;;;;;;;2.30;1.30;;;;;;;;;;4178258;34;20115;-68
2022/05/17 11:38:57;;;;;;;1.52;1.40;;;;;;;;;;4165430;34;20106;-67
2022/05/17 11:41:42;;;;;;;1.35;1.25;;;;;;;;;;4178491;34;20114;-67
2022/05/17 11:44:18;;;;;;;2.05;1.30;;;;;;;;;;4165552;34;20201;-67
2022/05/17 11:46:54;;;;;;;4.18;1.50;;;;;;;;;;4178226;34;20126;-67
2022/05/17 11:49:26;;;;;;;2.67;1.23;;;;;;;;;;4178196;34;20123;-67
2022/05/17 11:51:58;;;;;;;1.20;1.20;;;;;;;;;;4178187;34;20103;-67
2022/05/17 11:54:45;;;;;;;3.03;1.30;;;;;;;;;;4165260;34;20279;-67
2022/05/17 11:57:16;;;;;;;2.15;1.10;;;;;;;;;;4178102;34;20105;-67
2022/05/17 11:59:47;;;;;;;2.55;1.20;;;;;;;;;;4165560;34;20225;-67
2022/05/17 12:02:14;;;;;;;1.30;1.20;;;;;;;;;;4154084;34;20121;-68
2022/05/17 12:04:42;;;;;;;1.20;1.20;;;;;;;;;;4177923;34;20112;-68
2022/05/17 12:07:26;;;;;;;1.15;1.10;;;;;;;;;;4165705;34;20103;-67
2022/05/17 12:09:55;;;;;;;2.00;1.40;;;;;;;;;;4165262;34;20083;-70
2022/05/17 12:12:36;;;;;;;1.73;1.48;;;;;;;;;;4177912;34;20512;-66
2022/05/17 12:15:17;;;;;;;6.32;1.85;;;;;;;;;;4165568;34;20199;-64
2022/05/17 12:17:49;;;;;;;1.20;1.10;;;;;;;;;;4177769;34;20197;-68
2022/05/17 12:20:36;;;;;;;2.80;1.20;;;;;;;;;;4177601;34;20102;-68
2022/05/17 12:23:35;;;;;;;5.03;1.30;;;;;;;;;;4177991;34;20542;-68
2022/05/17 12:26:09;;;;;;;4.20;1.73;;;;;;;;;;4161980;34;20117;-65
2022/05/17 12:28:47;;;;;;;4.78;1.48;;;;;;;;;;4165060;34;20495;-67
2022/05/17 12:31:19;;;;;;;3.33;1.40;;;;;;;;;;4153837;34;20095;-69
2022/05/17 12:33:47;;;;;;;2.70;1.27;;;;;;;;;;4177046;34;20106;-70
2022/05/17 12:36:22;;;;;;;1.30;1.20;;;;;;;;;;4164051;34;20122;-70
2022/05/17 12:44:47;;;;;;;3.50;1.73;;;;;;;;;;4163758;34;20110;-67
2022/05/17 12:47:24;;;;;;;4.37;1.50;;;;;;;;;;4176591;34;20193;-67
2022/05/17 12:49:52;;;;;;;4.18;1.45;;;;;;;;;;4177862;34;20118;-66
2022/05/17 12:52:26;;;;;;;6.70;1.23;;;;;;;;;;4165029;34;20126;-63
2022/05/17 12:54:52;;;;;;;7.18;1.40;;;;;;;;;;4164458;34;20128;-65
2022/05/17 12:57:25;;;;;;;3.12;1.67;;;;;;;;;;4177518;34;20102;-64
2022/05/17 12:59:51;;;;;;;1.50;1.20;;;;;;;;;;4177556;34;20550;-63
2022/05/17 13:02:24;;;;;;;6.40;4.85;;;;;;;;;;4177546;34;20133;-65
2022/05/17 13:04:50;;;;;;;4.30;1.42;;;;;;;;;;4164751;34;20153;-65
2022/05/17 13:07:19;;;;;;;1.30;1.20;;;;;;;;;;4177618;34;20511;-65
2022/05/17 13:10:04;;;;;;;2.58;1.25;;;;;;;;;;4177451;34;20548;-64
2022/05/17 13:12:33;;;;;;;3.95;1.48;;;;;;;;;;4177464;34;20554;-64
2022/05/17 13:15:04;;;;;;;5.22;1.40;;;;;;;;;;4177481;34;20118;-64
2022/05/17 13:17:34;;;;;;;1.33;1.20;;;;;;;;;;4177352;34;20149;-64
2022/05/17 13:20:20;;;;;;;2.47;1.50;;;;;;;;;;4177480;34;20527;-67
2022/05/17 13:22:48;;;;;;;3.05;1.52;;;;;;;;;;4164795;34;20127;-67
2022/05/17 13:25:19;;;;;;;5.95;1.50;;;;;;;;;;4177431;34;20102;-66
2022/05/17 13:27:50;;;;;;;1.35;1.25;;;;;;;;;;4164624;34;20097;-65
2022/05/17 13:30:32;;;;;;;1.12;1.02;;;;;;;;;;4177435;34;20140;-66
2022/05/17 13:33:01;;;;;;;2.15;1.62;;;;;;;;;;4177101;34;20197;-65
2022/05/17 13:35:33;;;;;;;3.95;1.60;;;;;;;;;;4177339;34;20129;-65
2022/05/17 13:37:59;;;;;;;8.77;1.60;;;;;;;;;;4177580;34;20214;-65
2022/05/17 13:40:49;;;;;;;1.10;1.10;;;;;;;;;;4177275;34;20110;-64
2022/05/17 13:43:18;;;;;;;3.78;1.70;;;;;;;;;;4177355;34;20106;-66
2022/05/17 13:46:05;;;;;;;0.90;0.90;;;;;;;;;;4177343;34;20459;-66
2022/05/17 13:48:32;;;;;;;1.73;1.00;;;;;;;;;;4177166;34;20098;-65
2022/05/17 13:50:59;;;;;;;4.25;1.77;;;;;;;;;;4164467;34;20665;-66
2022/05/17 13:53:26;;;;;;;3.20;1.35;;;;;;;;;;4164712;34;20106;-65
2022/05/17 13:55:52;;;;;;;4.97;2.47;;;;;;;;;;4177085;34;20218;-65
2022/05/17 13:58:21;;;;;;;1.60;1.50;;;;;;;;;;4176971;34;20518;-64
2022/05/17 14:01:10;;;;;;;3.45;1.95;;;;;;;;;;4164583;34;20174;-65
2022/05/17 14:03:37;;;;;;;3.37;1.87;;;;;;;;;;4176921;34;20201;-67
2022/05/17 14:06:15;;;;;;;1.30;1.10;;;;;;;;;;4176854;34;20117;-64
2022/05/17 14:11:50;;;;;;;3.15;1.17;;;;;;;;;;4177275;34;20130;-66
2022/05/17 14:14:21;;;;;;;1.27;1.25;;;;;;;;;;4177305;34;20115;-64
2022/05/17 14:17:00;;;;;;;1.20;1.10;;;;;;;;;;4176910;34;20110;-64
2022/05/17 14:19:29;;;;;;;0.93;0.93;;;;;;;;;;4177050;34;20209;-65
2022/05/17 14:21:59;;;;;;;1.10;1.10;;;;;;;;;;4164272;34;20183;-65
2022/05/17 14:24:25;;;;;;;0.90;0.90;;;;;;;;;;4164325;34;20110;-64
2022/05/17 14:26:57;;;;;;;3.22;2.35;;;;;;;;;;4177088;34;20094;-66
2022/05/17 14:29:26;;;;;;;4.28;2.00;;;;;;;;;;4176823;34;20114;-65
2022/05/17 14:31:52;;;;;;;4.25;2.15;;;;;;;;;;4176641;34;20129;-69
2022/05/17 14:34:24;;;;;;;2.28;1.83;;;;;;;;;;4164282;34;20110;-70
2022/05/17 14:36:50;;;;;;;5.12;2.22;;;;;;;;;;4164065;34;20114;-71
2022/05/17 14:39:17;;;;;;;1.45;1.35;;;;;;;;;;4152980;34;20129;-73
2022/05/17 14:41:46;;;;;;;3.05;1.50;;;;;;;;;;4164115;34;20145;-71
2022/05/17 14:44:12;;;;;;;3.85;1.87;;;;;;;;;;4163496;34;20671;-67
2022/05/17 14:46:39;;;;;;;0.85;0.85;;;;;;;;;;4176630;34;20097;-67
2022/05/17 14:49:06;;;;;;;6.80;1.50;;;;;;;;;;4176800;34;20114;-68
2022/05/17 14:51:32;;;;;;;6.80;1.85;;;;;;;;;;4176620;34;20126;-66
2022/05/17 14:53:58;;;;;;;7.12;1.58;;;;;;;;;;4152530;34;20133;-67
2022/05/17 14:56:24;;;;;;;7.97;1.60;;;;;;;;;;4163820;34;20113;-67
2022/05/17 14:58:51;;;;;;;2.10;1.40;;;;;;;;;;4176370;34;20278;-67
2022/05/17 15:01:18;;;;;;;2.90;1.20;;;;;;;;;;4176518;34;20124;-70
2022/05/17 15:03:57;;;;;;;3.25;1.10;;;;;;;;;;4130346;34;20130;-68
2022/05/17 15:06:24;;;;;;;2.83;1.45;;;;;;;;;;4152348;34;20125;-69
2022/05/17 15:08:50;;;;;;;3.92;1.35;;;;;;;;;;4176272;34;20106;-67
2022/05/17 15:11:19;;;;;;;1.62;1.00;;;;;;;;;;4163603;34;20565;-67
2022/05/17 15:13:45;;;;;;;2.70;1.20;;;;;;;;;;4164126;34;20210;-67
2022/05/17 15:16:15;;;;;;;2.22;1.30;;;;;;;;;;4163809;34;20210;-67
2022/05/17 15:18:46;;;;;;;1.30;1.10;;;;;;;;;;4176230;34;20607;-65
2022/05/17 15:21:13;;;;;;;1.45;1.17;;;;;;;;;;4163787;34;20103;-68
2022/05/17 15:23:41;;;;;;;1.30;1.20;;;;;;;;;;4176195;34;20091;-69
2022/05/17 15:26:08;;;;;;;1.40;1.30;;;;;;;;;;4176115;34;20109;-70
2022/05/17 15:28:34;;;;;;;1.85;1.30;;;;;;;;;;4163523;34;20105;-67
2022/05/17 15:31:00;;;;;;;3.80;1.45;;;;;;;;;;4163484;34;20126;-71
2022/05/17 15:33:31;;;;;;;3.00;1.50;;;;;;;;;;4176211;34;20141;-71
2022/05/17 15:35:58;;;;;;;4.03;1.10;;;;;;;;;;4163512;34;20102;-68
2022/05/17 15:38:32;;;;;;;3.20;1.30;;;;;;;;;;4176216;34;20110;-66
2022/05/17 15:40:59;;;;;;;2.15;1.17;;;;;;;;;;4163808;34;20129;-68
2022/05/17 15:43:27;;;;;;;4.07;1.45;;;;;;;;;;4176149;34;20590;-66
2022/05/17 15:45:57;;;;;;;5.80;1.40;;;;;;;;;;4163229;34;21109;-68
2022/05/17 15:53:54;;;;;;;5.37;1.30;;;;;;;;;;4176167;34;20105;-70
2022/05/17 15:56:21;;;;;;;1.83;1.30;;;;;;;;;;4177468;34;20520;-71
2022/05/17 15:58:47;;;;;;;1.30;1.10;;;;;;;;;;4177941;34;20106;-69
2022/05/17 16:01:20;;;;;;;2.65;1.35;;;;;;;;;;4178132;34;20116;-70